sensor_id;sensor_type;location;lat;lon;timestamp;temperature;humidity
50560;DHT22;36510;52.610;13.468;2022-10-03T00:22:32;13.20;48.60
50560;DHT22;36510;52.610;13.468;2022-10-03T00:37:26;13.30;50.00
50560;DHT22;36510;52.610;13.468;2022-10-03T00:42:28;13.30;49.30
50560;DHT22;36510;52.610;13.468;2022-10-03T00:47:41;13.10;50.10
50560;DHT22;36510;52.610;13.468;2022-10-03T00:53:02;13.20;50.00
50560;DHT22;36510;52.610;13.468;2022-10-03T00:58:13;13.30;49.20
50560;DHT22;36510;52.610;13.468;2022-10-03T01:03:32;13.30;49.10
50560;DHT22;36510;52.610;13.468;2022-10-03T01:14:10;13.30;49.30
50560;DHT22;36510;52.610;13.468;2022-10-03T01:29:54;13.30;50.30
50560;DHT22;36510;52.610;13.468;2022-10-03T01:35:29;13.30;50.80
50560;DHT22;36510;52.610;13.468;2022-10-03T01:40:29;13.20;51.20
50560;DHT22;36510;52.610;13.468;2022-10-03T01:45:47;13.20;51.20
50560;DHT22;36510;52.610;13.468;2022-10-03T02:01:44;13.40;50.70
50560;DHT22;36510;52.610;13.468;2022-10-03T02:07:25;13.40;50.20
50560;DHT22;36510;52.610;13.468;2022-10-03T02:12:08;13.40;50.00
50560;DHT22;36510;52.610;13.468;2022-10-03T02:17:12;13.40;49.80
50560;DHT22;36510;52.610;13.468;2022-10-03T02:22:14;13.40;50.40
50560;DHT22;36510;52.610;13.468;2022-10-03T02:43:05;13.20;52.00
50560;DHT22;36510;52.610;13.468;2022-10-03T03:10:15;13.40;50.50
50560;DHT22;36510;52.610;13.468;2022-10-03T03:20:51;13.50;49.00
50560;DHT22;36510;52.610;13.468;2022-10-03T03:26:16;13.60;48.50
50560;DHT22;36510;52.610;13.468;2022-10-03T03:31:15;13.50;48.30
50560;DHT22;36510;52.610;13.468;2022-10-03T03:41:26;13.70;47.30
50560;DHT22;36510;52.610;13.468;2022-10-03T03:56:34;13.70;47.30
50560;DHT22;36510;52.610;13.468;2022-10-03T04:01:50;13.70;47.30
50560;DHT22;36510;52.610;13.468;2022-10-03T04:07:23;13.60;47.20
50560;DHT22;36510;52.610;13.468;2022-10-03T04:12:30;13.50;47.10
50560;DHT22;36510;52.610;13.468;2022-10-03T04:23:44;13.50;47.10
50560;DHT22;36510;52.610;13.468;2022-10-03T04:28:55;13.40;47.90
50560;DHT22;36510;52.610;13.468;2022-10-03T04:34:06;13.40;47.40
50560;DHT22;36510;52.610;13.468;2022-10-03T04:39:34;13.40;48.20
50560;DHT22;36510;52.610;13.468;2022-10-03T04:55:48;13.60;47.20
50560;DHT22;36510;52.610;13.468;2022-10-03T05:01:09;13.60;47.20
50560;DHT22;36510;52.610;13.468;2022-10-03T05:11:28;13.60;47.20
50560;DHT22;36510;52.610;13.468;2022-10-03T05:16:34;13.60;47.20
50560;DHT22;36510;52.610;13.468;2022-10-03T05:21:46;13.60;47.20
50560;DHT22;36510;52.610;13.468;2022-10-03T05:32:22;13.60;47.20
50560;DHT22;36510;52.610;13.468;2022-10-03T05:48:23;13.40;47.00
50560;DHT22;36510;52.610;13.468;2022-10-03T05:53:31;13.40;47.00
50560;DHT22;36510;52.610;13.468;2022-10-03T05:58:48;13.50;47.10
50560;DHT22;36510;52.610;13.468;2022-10-03T06:14:30;13.60;45.90
50560;DHT22;36510;52.610;13.468;2022-10-03T06:25:09;13.60;45.50
50560;DHT22;36510;52.610;13.468;2022-10-03T06:30:26;13.60;45.60
50560;DHT22;36510;52.610;13.468;2022-10-03T06:41:17;13.60;46.70
50560;DHT22;36510;52.610;13.468;2022-10-03T06:46:45;13.70;45.60
50560;DHT22;36510;52.610;13.468;2022-10-03T06:57:23;13.80;45.40
50560;DHT22;36510;52.610;13.468;2022-10-03T07:07:56;13.80;44.60
50560;DHT22;36510;52.610;13.468;2022-10-03T07:23:27;14.00;43.50
50560;DHT22;36510;52.610;13.468;2022-10-03T07:28:37;14.00;42.70
50560;DHT22;36510;52.610;13.468;2022-10-03T07:38:48;14.10;42.40
50560;DHT22;36510;52.610;13.468;2022-10-03T07:49:33;14.30;42.40
50560;DHT22;36510;52.610;13.468;2022-10-03T07:54:49;14.30;41.30
50560;DHT22;36510;52.610;13.468;2022-10-03T08:05:25;14.40;41.10
50560;DHT22;36510;52.610;13.468;2022-10-03T08:20:53;14.50;40.30
50560;DHT22;36510;52.610;13.468;2022-10-03T08:26:11;14.60;41.00
50560;DHT22;36510;52.610;13.468;2022-10-03T08:42:20;14.70;38.80
50560;DHT22;36510;52.610;13.468;2022-10-03T08:47:45;14.80;38.10
50560;DHT22;36510;52.610;13.468;2022-10-03T09:13:55;15.10;36.20
50560;DHT22;36510;52.610;13.468;2022-10-03T09:19:28;15.20;36.80
50560;DHT22;36510;52.610;13.468;2022-10-03T09:24:47;15.10;36.40
50560;DHT22;36510;52.610;13.468;2022-10-03T09:30:14;15.20;36.70
50560;DHT22;36510;52.610;13.468;2022-10-03T09:35:28;15.30;36.90
50560;DHT22;36510;52.610;13.468;2022-10-03T09:46:22;15.90;35.20
50560;DHT22;36510;52.610;13.468;2022-10-03T09:51:34;16.10;32.20
50560;DHT22;36510;52.610;13.468;2022-10-03T10:33:12;16.50;31.10
50560;DHT22;36510;52.610;13.468;2022-10-03T10:38:26;16.50;31.60
50560;DHT22;36510;52.610;13.468;2022-10-03T10:43:42;16.70;30.70
50560;DHT22;36510;52.610;13.468;2022-10-03T10:53:55;17.40;29.60
50560;DHT22;36510;52.610;13.468;2022-10-03T11:05:05;17.80;25.70
50560;DHT22;36510;52.610;13.468;2022-10-03T11:10:27;17.90;25.10
50560;DHT22;36510;52.610;13.468;2022-10-03T11:15:53;18.10;25.00
50560;DHT22;36510;52.610;13.468;2022-10-03T11:26:18;17.60;27.10
50560;DHT22;36510;52.610;13.468;2022-10-03T11:31:47;17.50;27.30
50560;DHT22;36510;52.610;13.468;2022-10-03T11:37:05;17.80;27.80
50560;DHT22;36510;52.610;13.468;2022-10-03T11:42:09;18.10;27.00
50560;DHT22;36510;52.610;13.468;2022-10-03T11:52:52;18.10;27.10
50560;DHT22;36510;52.610;13.468;2022-10-03T11:57:58;17.80;29.60
50560;DHT22;36510;52.610;13.468;2022-10-03T12:03:16;17.80;29.80
50560;DHT22;36510;52.610;13.468;2022-10-03T12:08:29;18.00;30.30
50560;DHT22;36510;52.610;13.468;2022-10-03T12:14:06;17.80;29.20
50560;DHT22;36510;52.610;13.468;2022-10-03T12:24:27;18.10;27.50
50560;DHT22;36510;52.610;13.468;2022-10-03T12:29:20;18.20;27.10
50560;DHT22;36510;52.610;13.468;2022-10-03T12:39:39;18.30;26.10
50560;DHT22;36510;52.610;13.468;2022-10-03T12:44:54;18.30;26.50
50560;DHT22;36510;52.610;13.468;2022-10-03T12:50:38;18.30;26.40
50560;DHT22;36510;52.610;13.468;2022-10-03T12:55:35;18.40;26.50
50560;DHT22;36510;52.610;13.468;2022-10-03T13:10:48;18.70;27.00
50560;DHT22;36510;52.610;13.468;2022-10-03T13:21:04;18.70;24.30
50560;DHT22;36510;52.610;13.468;2022-10-03T13:26:08;18.40;24.20
50560;DHT22;36510;52.610;13.468;2022-10-03T13:31:23;18.20;24.30
50560;DHT22;36510;52.610;13.468;2022-10-03T13:36:28;18.10;25.50
50560;DHT22;36510;52.610;13.468;2022-10-03T13:41:38;17.90;24.50
50560;DHT22;36510;52.610;13.468;2022-10-03T13:51:59;17.80;25.00
50560;DHT22;36510;52.610;13.468;2022-10-03T13:57:00;17.80;25.20
50560;DHT22;36510;52.610;13.468;2022-10-03T14:07:28;17.80;25.90
50560;DHT22;36510;52.610;13.468;2022-10-03T14:17:44;17.60;24.40
50560;DHT22;36510;52.610;13.468;2022-10-03T14:22:47;17.60;24.80
50560;DHT22;36510;52.610;13.468;2022-10-03T14:27:46;17.60;25.10
50560;DHT22;36510;52.610;13.468;2022-10-03T14:32:54;17.70;25.10
50560;DHT22;36510;52.610;13.468;2022-10-03T14:37:54;17.80;24.40
50560;DHT22;36510;52.610;13.468;2022-10-03T14:48:03;17.60;27.00
50560;DHT22;36510;52.610;13.468;2022-10-03T14:53:01;17.60;26.20
50560;DHT22;36510;52.610;13.468;2022-10-03T14:58:01;17.60;27.40
50560;DHT22;36510;52.610;13.468;2022-10-03T15:02:55;17.70;26.90
50560;DHT22;36510;52.610;13.468;2022-10-03T15:07:46;17.50;26.40
50560;DHT22;36510;52.610;13.468;2022-10-03T15:12:40;17.60;26.60
50560;DHT22;36510;52.610;13.468;2022-10-03T15:17:35;17.50;25.90
50560;DHT22;36510;52.610;13.468;2022-10-03T15:22:34;17.40;25.90
50560;DHT22;36510;52.610;13.468;2022-10-03T15:27:25;17.40;25.80
50560;DHT22;36510;52.610;13.468;2022-10-03T15:32:22;17.30;26.10
50560;DHT22;36510;52.610;13.468;2022-10-03T15:37:20;17.40;25.60
50560;DHT22;36510;52.610;13.468;2022-10-03T15:42:20;17.30;25.60
50560;DHT22;36510;52.610;13.468;2022-10-03T15:47:25;17.30;25.70
50560;DHT22;36510;52.610;13.468;2022-10-03T15:52:24;17.20;26.50
50560;DHT22;36510;52.610;13.468;2022-10-03T15:57:23;17.20;28.20
50560;DHT22;36510;52.610;13.468;2022-10-03T16:02:18;17.30;30.50
50560;DHT22;36510;52.610;13.468;2022-10-03T16:07:27;17.30;32.30
50560;DHT22;36510;52.610;13.468;2022-10-03T16:12:36;17.30;31.00
50560;DHT22;36510;52.610;13.468;2022-10-03T16:17:45;17.20;30.90
50560;DHT22;36510;52.610;13.468;2022-10-03T16:22:50;17.10;30.20
50560;DHT22;36510;52.610;13.468;2022-10-03T16:27:50;17.10;31.00
50560;DHT22;36510;52.610;13.468;2022-10-03T16:32:56;17.00;31.00
50560;DHT22;36510;52.610;13.468;2022-10-03T16:37:50;17.00;30.50
50560;DHT22;36510;52.610;13.468;2022-10-03T16:42:43;16.90;30.50
50560;DHT22;36510;52.610;13.468;2022-10-03T16:47:35;16.90;30.40
50560;DHT22;36510;52.610;13.468;2022-10-03T16:52:50;16.90;30.30
50560;DHT22;36510;52.610;13.468;2022-10-03T16:57:55;16.90;30.20
50560;DHT22;36510;52.610;13.468;2022-10-03T17:02:46;16.80;30.30
50560;DHT22;36510;52.610;13.468;2022-10-03T17:07:46;16.70;30.90
50560;DHT22;36510;52.610;13.468;2022-10-03T17:12:41;16.60;31.30
50560;DHT22;36510;52.610;13.468;2022-10-03T17:17:51;16.60;31.00
50560;DHT22;36510;52.610;13.468;2022-10-03T17:23:01;16.60;31.30
50560;DHT22;36510;52.610;13.468;2022-10-03T17:27:53;16.50;31.60
50560;DHT22;36510;52.610;13.468;2022-10-03T17:32:52;16.40;32.20
50560;DHT22;36510;52.610;13.468;2022-10-03T17:38:04;16.30;32.40
50560;DHT22;36510;52.610;13.468;2022-10-03T17:43:04;16.30;32.30
50560;DHT22;36510;52.610;13.468;2022-10-03T17:48:09;16.10;32.20
50560;DHT22;36510;52.610;13.468;2022-10-03T17:53:01;16.10;31.80
50560;DHT22;36510;52.610;13.468;2022-10-03T17:57:55;16.10;32.20
50560;DHT22;36510;52.610;13.468;2022-10-03T18:08:29;16.20;31.70
50560;DHT22;36510;52.610;13.468;2022-10-03T18:13:38;16.20;32.20
50560;DHT22;36510;52.610;13.468;2022-10-03T18:18:54;16.20;32.30
50560;DHT22;36510;52.610;13.468;2022-10-03T18:24:05;16.10;32.20
50560;DHT22;36510;52.610;13.468;2022-10-03T18:34:35;16.20;32.80
50560;DHT22;36510;52.610;13.468;2022-10-03T18:39:33;16.10;33.60
50560;DHT22;36510;52.610;13.468;2022-10-03T18:44:28;16.00;33.70
50560;DHT22;36510;52.610;13.468;2022-10-03T18:49:30;16.00;34.10
50560;DHT22;36510;52.610;13.468;2022-10-03T18:54:44;15.90;34.50
50560;DHT22;36510;52.610;13.468;2022-10-03T18:59:52;15.80;35.20
50560;DHT22;36510;52.610;13.468;2022-10-03T19:04:51;15.80;35.80
50560;DHT22;36510;52.610;13.468;2022-10-03T19:10:23;15.80;36.10
50560;DHT22;36510;52.610;13.468;2022-10-03T19:20:41;15.80;36.60
50560;DHT22;36510;52.610;13.468;2022-10-03T19:25:34;15.80;36.90
50560;DHT22;36510;52.610;13.468;2022-10-03T19:30:29;15.80;37.40
50560;DHT22;36510;52.610;13.468;2022-10-03T19:35:22;15.70;38.30
50560;DHT22;36510;52.610;13.468;2022-10-03T19:40:25;15.70;38.60
50560;DHT22;36510;52.610;13.468;2022-10-03T19:45:18;15.70;39.10
50560;DHT22;36510;52.610;13.468;2022-10-03T19:50:16;15.70;40.20
50560;DHT22;36510;52.610;13.468;2022-10-03T20:05:05;15.60;41.50
50560;DHT22;36510;52.610;13.468;2022-10-03T20:09:59;15.60;41.90
50560;DHT22;36510;52.610;13.468;2022-10-03T20:14:52;15.60;42.20
50560;DHT22;36510;52.610;13.468;2022-10-03T20:19:50;15.50;42.70
50560;DHT22;36510;52.610;13.468;2022-10-03T20:24:44;15.60;43.00
50560;DHT22;36510;52.610;13.468;2022-10-03T20:30:24;15.50;43.00
50560;DHT22;36510;52.610;13.468;2022-10-03T20:34:53;15.50;43.30
50560;DHT22;36510;52.610;13.468;2022-10-03T20:39:46;15.50;44.10
50560;DHT22;36510;52.610;13.468;2022-10-03T20:50:18;15.50;45.20
50560;DHT22;36510;52.610;13.468;2022-10-03T20:55:18;15.50;45.50
50560;DHT22;36510;52.610;13.468;2022-10-03T21:00:40;15.40;45.80
50560;DHT22;36510;52.610;13.468;2022-10-03T21:05:37;15.40;45.90
50560;DHT22;36510;52.610;13.468;2022-10-03T21:10:48;15.40;46.40
50560;DHT22;36510;52.610;13.468;2022-10-03T21:15:49;15.40;46.60
50560;DHT22;36510;52.610;13.468;2022-10-03T21:20:40;15.30;47.40
50560;DHT22;36510;52.610;13.468;2022-10-03T21:25:33;15.30;48.50
50560;DHT22;36510;52.610;13.468;2022-10-03T21:30:49;15.30;47.20
50560;DHT22;36510;52.610;13.468;2022-10-03T21:35:43;15.40;47.20
50560;DHT22;36510;52.610;13.468;2022-10-03T21:40:47;15.30;47.80
50560;DHT22;36510;52.610;13.468;2022-10-03T21:45:51;15.40;47.70
50560;DHT22;36510;52.610;13.468;2022-10-03T21:50:53;15.40;47.50
50560;DHT22;36510;52.610;13.468;2022-10-03T21:56:24;15.50;47.20
50560;DHT22;36510;52.610;13.468;2022-10-03T22:01:33;15.40;47.10
50560;DHT22;36510;52.610;13.468;2022-10-03T22:06:43;15.50;47.00
50560;DHT22;36510;52.610;13.468;2022-10-03T22:11:43;15.50;46.30
50560;DHT22;36510;52.610;13.468;2022-10-03T22:16:54;15.50;46.50
50560;DHT22;36510;52.610;13.468;2022-10-03T22:32:55;15.60;46.50
50560;DHT22;36510;52.610;13.468;2022-10-03T22:37:50;15.50;47.10
50560;DHT22;36510;52.610;13.468;2022-10-03T22:42:45;15.50;47.30
50560;DHT22;36510;52.610;13.468;2022-10-03T22:47:38;15.50;47.10
50560;DHT22;36510;52.610;13.468;2022-10-03T22:52:35;15.50;47.50
50560;DHT22;36510;52.610;13.468;2022-10-03T22:57:27;15.40;48.00
50560;DHT22;36510;52.610;13.468;2022-10-03T23:02:18;15.40;47.70
50560;DHT22;36510;52.610;13.468;2022-10-03T23:07:36;15.40;48.30
50560;DHT22;36510;52.610;13.468;2022-10-03T23:12:38;15.30;48.60
50560;DHT22;36510;52.610;13.468;2022-10-03T23:22:26;15.30;48.60
50560;DHT22;36510;52.610;13.468;2022-10-03T23:32:51;15.30;48.60
50560;DHT22;36510;52.610;13.468;2022-10-03T23:37:45;15.40;47.70
50560;DHT22;36510;52.610;13.468;2022-10-03T23:42:41;15.50;47.40
50560;DHT22;36510;52.610;13.468;2022-10-03T23:47:38;15.50;47.20
50560;DHT22;36510;52.610;13.468;2022-10-03T23:52:38;15.40;47.40
50560;DHT22;36510;52.610;13.468;2022-10-03T23:57:33;15.50;47.10
